TAR375 DAAG-DTTA
Flight info
| Callsign | TAR375 |
|---|---|
| Flight time | 0h 53m |
| Altitude | 37000 |
| Route | BJA1D BJA UA411 MORJA UM978 KEMIR UA411 TUC |
| Aircraft | A320/M-SDE3FGHIRWY/LB1 |
Departure
| Time | 2026-05-05 19:19 |
|---|---|
| Airport | Houari Boumediene Airport (DAAG) |
Arrival
| Time | 2026-05-05 20:13 |
|---|---|
| Airport | Tunis Carthage International Airport (DTTA) |
| Time | Latitude | Longitude | Altitude | Speed | Heading |
|---|---|---|---|---|---|
| 2026-05-05 18:47 | 36.69715 | 3.20279 | 70 ft | 0 kts | 272° |
| 2026-05-05 19:04 | 36.69714 | 3.20300 | 60 ft | 4 kts | 266° |
| 2026-05-05 19:04 | 36.69719 | 3.20333 | 64 ft | 4 kts | 248° |
| 2026-05-05 19:04 | 36.69732 | 3.20359 | 62 ft | 4 kts | 197° |
| 2026-05-05 19:04 | 36.69742 | 3.20361 | 60 ft | 0 kts | 166° |
| 2026-05-05 19:08 | 36.69697 | 3.20375 | 71 ft | 0 kts | 166° |
| 2026-05-05 19:09 | 36.69696 | 3.20369 | 71 ft | 0 kts | 166° |
| 2026-05-05 19:10 | 36.69678 | 3.20371 | 70 ft | 8 kts | 177° |
| 2026-05-05 19:10 | 36.69575 | 3.20370 | 67 ft | 21 kts | 180° |
| 2026-05-05 19:11 | 36.69460 | 3.20335 | 64 ft | 15 kts | 233° |
| 2026-05-05 19:11 | 36.69450 | 3.20218 | 66 ft | 13 kts | 272° |
| 2026-05-05 19:11 | 36.69452 | 3.20111 | 70 ft | 12 kts | 271° |
| 2026-05-05 19:11 | 36.69454 | 3.20016 | 70 ft | 10 kts | 271° |
| 2026-05-05 19:12 | 36.69455 | 3.19932 | 70 ft | 9 kts | 266° |
| 2026-05-05 19:12 | 36.69416 | 3.19903 | 68 ft | 6 kts | 170° |
| 2026-05-05 19:12 | 36.69379 | 3.19908 | 66 ft | 5 kts | 179° |
| 2026-05-05 19:12 | 36.69350 | 3.19906 | 69 ft | 4 kts | 190° |
| 2026-05-05 19:13 | 36.69328 | 3.19896 | 62 ft | 4 kts | 212° |
| 2026-05-05 19:13 | 36.69309 | 3.19842 | 70 ft | 10 kts | 265° |
| 2026-05-05 19:13 | 36.69311 | 3.19732 | 71 ft | 16 kts | 272° |
| 2026-05-05 19:13 | 36.69315 | 3.19569 | 70 ft | 22 kts | 270° |
| 2026-05-05 19:14 | 36.69312 | 3.19356 | 71 ft | 27 kts | 268° |
| 2026-05-05 19:14 | 36.69301 | 3.19101 | 71 ft | 31 kts | 265° |
| 2026-05-05 19:14 | 36.69329 | 3.18847 | 71 ft | 31 kts | 277° |
| 2026-05-05 19:14 | 36.69338 | 3.18575 | 71 ft | 32 kts | 271° |
| 2026-05-05 19:15 | 36.69345 | 3.18292 | 71 ft | 33 kts | 271° |
| 2026-05-05 19:15 | 36.69348 | 3.18057 | 66 ft | 8 kts | 272° |
| 2026-05-05 19:15 | 36.69350 | 3.17991 | 65 ft | 7 kts | 271° |
| 2026-05-05 19:15 | 36.69350 | 3.17965 | 71 ft | 0 kts | 271° |
| 2026-05-05 19:16 | 36.69351 | 3.17947 | 71 ft | 3 kts | 271° |
| 2026-05-05 19:16 | 36.69351 | 3.17912 | 71 ft | 5 kts | 271° |
| 2026-05-05 19:16 | 36.69352 | 3.17856 | 71 ft | 8 kts | 271° |
| 2026-05-05 19:16 | 36.69354 | 3.17765 | 71 ft | 13 kts | 271° |
| 2026-05-05 19:17 | 36.69357 | 3.17636 | 68 ft | 17 kts | 271° |
| 2026-05-05 19:17 | 36.69358 | 3.17464 | 66 ft | 22 kts | 269° |
| 2026-05-05 19:17 | 36.69363 | 3.17257 | 64 ft | 26 kts | 273° |
| 2026-05-05 19:17 | 36.69361 | 3.17131 | 65 ft | 13 kts | 246° |
| 2026-05-05 19:18 | 36.69288 | 3.17099 | 76 ft | 11 kts | 175° |
| 2026-05-05 19:18 | 36.69215 | 3.17113 | 82 ft | 11 kts | 156° |
| 2026-05-05 19:18 | 36.69201 | 3.17230 | 80 ft | 25 kts | 92° |
| 2026-05-05 19:18 | 36.69191 | 3.17736 | 72 ft | 95 kts | 91° |
| 2026-05-05 19:19 | 36.69166 | 3.18813 | 79 ft | 150 kts | 92° |
| 2026-05-05 19:19 | 36.69110 | 3.20191 | 658 ft | 154 kts | 94° |
| 2026-05-05 19:19 | 36.69049 | 3.21514 | 1396 ft | 155 kts | 91° |
| 2026-05-05 19:19 | 36.69213 | 3.22837 | 2025 ft | 160 kts | 57° |
| 2026-05-05 19:20 | 36.70115 | 3.23705 | 2388 ft | 180 kts | 13° |
| 2026-05-05 19:20 | 36.71396 | 3.23464 | 2705 ft | 201 kts | 326° |
| 2026-05-05 19:20 | 36.72235 | 3.21989 | 3015 ft | 226 kts | 281° |
| 2026-05-05 19:20 | 36.72188 | 3.19953 | 3484 ft | 250 kts | 257° |
| 2026-05-05 19:21 | 36.71695 | 3.17785 | 4254 ft | 262 kts | 250° |
| 2026-05-05 19:21 | 36.71089 | 3.15645 | 5268 ft | 265 kts | 248° |
| 2026-05-05 19:21 | 36.70473 | 3.13463 | 6348 ft | 266 kts | 248° |
| 2026-05-05 19:21 | 36.70082 | 3.12009 | 7033 ft | 266 kts | 249° |
| 2026-05-05 19:22 | 36.69344 | 3.09078 | 8445 ft | 265 kts | 250° |
| 2026-05-05 19:22 | 36.68904 | 3.07658 | 9146 ft | 263 kts | 241° |
| 2026-05-05 19:22 | 36.67856 | 3.05804 | 10160 ft | 263 kts | 226° |
| 2026-05-05 19:22 | 36.66402 | 3.04388 | 11044 ft | 269 kts | 211° |
| 2026-05-05 19:23 | 36.64612 | 3.03567 | 11885 ft | 279 kts | 194° |
| 2026-05-05 19:23 | 36.62652 | 3.03492 | 12686 ft | 293 kts | 176° |
| 2026-05-05 19:23 | 36.60663 | 3.04286 | 13489 ft | 308 kts | 156° |
| 2026-05-05 19:23 | 36.58940 | 3.05979 | 14221 ft | 324 kts | 134° |
| 2026-05-05 19:24 | 36.57784 | 3.08443 | 14937 ft | 338 kts | 111° |
| 2026-05-05 19:24 | 36.57437 | 3.11350 | 15543 ft | 354 kts | 89° |
| 2026-05-05 19:24 | 36.58062 | 3.14399 | 15725 ft | 378 kts | 62° |
| 2026-05-05 19:24 | 36.59398 | 3.17332 | 15892 ft | 399 kts | 59° |
| 2026-05-05 19:25 | 36.60755 | 3.20409 | 16385 ft | 409 kts | 62° |
| 2026-05-05 19:25 | 36.61949 | 3.23659 | 17024 ft | 416 kts | 68° |
| 2026-05-05 19:25 | 36.62902 | 3.27106 | 17681 ft | 421 kts | 74° |
| 2026-05-05 19:25 | 36.63593 | 3.30679 | 18305 ft | 427 kts | 80° |
| 2026-05-05 19:26 | 36.64044 | 3.34313 | 18860 ft | 431 kts | 85° |
| 2026-05-05 19:26 | 36.64279 | 3.38042 | 19450 ft | 433 kts | 89° |
| 2026-05-05 19:26 | 36.64422 | 3.41812 | 20055 ft | 436 kts | 89° |
| 2026-05-05 19:26 | 36.64578 | 3.45600 | 20652 ft | 439 kts | 89° |
| 2026-05-05 19:27 | 36.64740 | 3.49373 | 21247 ft | 442 kts | 89° |
| 2026-05-05 19:27 | 36.64899 | 3.53209 | 21833 ft | 445 kts | 89° |
| 2026-05-05 19:27 | 36.65054 | 3.57085 | 22387 ft | 449 kts | 89° |
| 2026-05-05 19:27 | 36.65209 | 3.60990 | 22935 ft | 452 kts | 89° |
| 2026-05-05 19:28 | 36.65384 | 3.64913 | 23505 ft | 455 kts | 89° |
| 2026-05-05 19:28 | 36.65576 | 3.68857 | 23997 ft | 457 kts | 88° |
| 2026-05-05 19:28 | 36.65780 | 3.72837 | 24480 ft | 460 kts | 88° |
| 2026-05-05 19:28 | 36.65985 | 3.76791 | 24952 ft | 463 kts | 88° |
| 2026-05-05 19:29 | 36.66191 | 3.80814 | 25419 ft | 465 kts | 88° |
| 2026-05-05 19:29 | 36.66392 | 3.84863 | 25887 ft | 467 kts | 89° |
| 2026-05-05 19:29 | 36.66586 | 3.88924 | 26338 ft | 470 kts | 89° |
| 2026-05-05 19:29 | 36.66773 | 3.93001 | 26800 ft | 471 kts | 89° |
| 2026-05-05 19:30 | 36.66953 | 3.97037 | 27254 ft | 473 kts | 89° |
| 2026-05-05 19:30 | 36.67135 | 4.01149 | 27685 ft | 476 kts | 89° |
| 2026-05-05 19:30 | 36.67321 | 4.05290 | 28112 ft | 478 kts | 89° |
| 2026-05-05 19:30 | 36.67510 | 4.09444 | 28533 ft | 480 kts | 89° |
| 2026-05-05 19:31 | 36.67699 | 4.13619 | 28935 ft | 483 kts | 89° |
| 2026-05-05 19:31 | 36.67885 | 4.17752 | 29314 ft | 485 kts | 89° |
| 2026-05-05 19:31 | 36.68075 | 4.21959 | 29707 ft | 487 kts | 89° |
| 2026-05-05 19:31 | 36.68265 | 4.26204 | 30088 ft | 489 kts | 89° |
| 2026-05-05 19:32 | 36.68451 | 4.30452 | 30398 ft | 491 kts | 89° |
| 2026-05-05 19:32 | 36.68636 | 4.34714 | 30714 ft | 493 kts | 89° |
| 2026-05-05 19:32 | 36.68819 | 4.38981 | 31161 ft | 492 kts | 89° |
| 2026-05-05 19:32 | 36.69000 | 4.43237 | 31621 ft | 490 kts | 89° |
| 2026-05-05 19:33 | 36.69175 | 4.47431 | 32062 ft | 489 kts | 89° |
| 2026-05-05 19:33 | 36.69353 | 4.51672 | 32512 ft | 488 kts | 89° |
| 2026-05-05 19:33 | 36.69529 | 4.55906 | 32953 ft | 487 kts | 89° |
| 2026-05-05 19:33 | 36.69704 | 4.60116 | 33394 ft | 486 kts | 89° |
| 2026-05-05 19:34 | 36.69875 | 4.64276 | 33815 ft | 486 kts | 89° |
| 2026-05-05 19:34 | 36.70043 | 4.68480 | 34181 ft | 485 kts | 89° |
| 2026-05-05 19:34 | 36.70211 | 4.72690 | 34537 ft | 485 kts | 89° |
| 2026-05-05 19:35 | 36.70546 | 4.81111 | 35238 ft | 485 kts | 89° |
| 2026-05-05 19:35 | 36.70711 | 4.85325 | 35566 ft | 486 kts | 89° |
| 2026-05-05 19:35 | 36.70875 | 4.89533 | 35903 ft | 486 kts | 89° |
| 2026-05-05 19:35 | 36.71037 | 4.93740 | 36227 ft | 486 kts | 89° |
| 2026-05-05 19:36 | 36.71195 | 4.97903 | 36518 ft | 486 kts | 89° |
| 2026-05-05 19:36 | 36.71347 | 5.02108 | 36815 ft | 486 kts | 89° |
| 2026-05-05 19:36 | 36.71501 | 5.06333 | 36979 ft | 487 kts | 89° |
| 2026-05-05 19:37 | 36.72089 | 5.14782 | 37001 ft | 488 kts | 84° |
| 2026-05-05 19:37 | 36.73068 | 5.23119 | 36998 ft | 488 kts | 82° |
| 2026-05-05 19:38 | 36.74081 | 5.31494 | 36994 ft | 488 kts | 83° |
| 2026-05-05 19:38 | 36.74979 | 5.39890 | 36985 ft | 487 kts | 84° |
| 2026-05-05 19:39 | 36.75809 | 5.48285 | 36988 ft | 487 kts | 84° |
| 2026-05-05 19:39 | 36.76647 | 5.56689 | 37002 ft | 487 kts | 84° |
| 2026-05-05 19:40 | 36.77507 | 5.65042 | 37020 ft | 487 kts | 84° |
| 2026-05-05 19:40 | 36.78368 | 5.73453 | 37033 ft | 487 kts | 84° |
| 2026-05-05 19:41 | 36.79202 | 5.81856 | 37036 ft | 487 kts | 84° |
| 2026-05-05 19:41 | 36.79834 | 5.90213 | 37038 ft | 485 kts | 90° |
| 2026-05-05 19:42 | 36.80043 | 5.98642 | 37035 ft | 485 kts | 90° |
| 2026-05-05 19:42 | 36.80260 | 6.07086 | 37024 ft | 485 kts | 90° |
| 2026-05-05 19:43 | 36.80465 | 6.15473 | 37013 ft | 485 kts | 90° |
| 2026-05-05 19:43 | 36.80659 | 6.23910 | 37005 ft | 485 kts | 90° |
| 2026-05-05 19:44 | 36.80850 | 6.32331 | 37002 ft | 485 kts | 90° |
| 2026-05-05 19:44 | 36.81042 | 6.40715 | 37001 ft | 486 kts | 90° |
| 2026-05-05 19:45 | 36.81226 | 6.49157 | 37002 ft | 485 kts | 90° |
| 2026-05-05 19:45 | 36.81396 | 6.57599 | 37003 ft | 485 kts | 90° |
| 2026-05-05 19:46 | 36.81559 | 6.66030 | 37007 ft | 486 kts | 90° |
| 2026-05-05 19:46 | 36.81720 | 6.74415 | 37008 ft | 486 kts | 90° |
| 2026-05-05 19:47 | 36.81876 | 6.82855 | 37011 ft | 485 kts | 90° |
| 2026-05-05 19:47 | 36.82018 | 6.91290 | 37005 ft | 485 kts | 90° |
| 2026-05-05 19:48 | 36.82159 | 6.99670 | 37008 ft | 485 kts | 90° |
| 2026-05-05 19:48 | 36.82305 | 7.08111 | 37007 ft | 485 kts | 90° |
| 2026-05-05 19:49 | 36.82440 | 7.16546 | 37005 ft | 485 kts | 90° |
| 2026-05-05 19:49 | 36.82562 | 7.24958 | 37002 ft | 485 kts | 90° |
| 2026-05-05 19:50 | 36.82685 | 7.33327 | 37005 ft | 485 kts | 90° |
| 2026-05-05 19:50 | 36.82800 | 7.41737 | 37008 ft | 484 kts | 91° |
| 2026-05-05 19:51 | 36.82904 | 7.50172 | 37007 ft | 484 kts | 91° |
| 2026-05-05 19:51 | 36.83004 | 7.58522 | 37008 ft | 484 kts | 91° |
| 2026-05-05 19:52 | 36.83100 | 7.66943 | 37011 ft | 483 kts | 91° |
| 2026-05-05 19:52 | 36.83190 | 7.75329 | 37011 ft | 483 kts | 91° |
| 2026-05-05 19:53 | 36.83275 | 7.83723 | 37011 ft | 483 kts | 91° |
| 2026-05-05 19:53 | 36.83323 | 7.92062 | 37011 ft | 482 kts | 91° |
| 2026-05-05 19:54 | 36.83351 | 8.00439 | 36982 ft | 482 kts | 91° |
| 2026-05-05 19:54 | 36.83367 | 8.04639 | 36156 ft | 487 kts | 91° |
| 2026-05-05 19:54 | 36.83383 | 8.08902 | 35249 ft | 492 kts | 91° |
| 2026-05-05 19:54 | 36.83400 | 8.13180 | 34487 ft | 492 kts | 91° |
| 2026-05-05 19:55 | 36.83414 | 8.17451 | 33718 ft | 491 kts | 91° |
| 2026-05-05 19:55 | 36.83425 | 8.21721 | 32824 ft | 491 kts | 91° |
| 2026-05-05 19:55 | 36.83433 | 8.25996 | 31877 ft | 493 kts | 91° |
| 2026-05-05 19:55 | 36.83438 | 8.30286 | 30912 ft | 495 kts | 91° |
| 2026-05-05 19:56 | 36.83443 | 8.34530 | 30122 ft | 493 kts | 90° |
| 2026-05-05 19:56 | 36.83451 | 8.38810 | 29150 ft | 492 kts | 90° |
| 2026-05-05 19:56 | 36.83459 | 8.43112 | 28267 ft | 490 kts | 91° |
| 2026-05-05 19:56 | 36.83465 | 8.47312 | 27472 ft | 486 kts | 91° |
| 2026-05-05 19:57 | 36.83467 | 8.51534 | 26702 ft | 481 kts | 91° |
| 2026-05-05 19:57 | 36.83466 | 8.54312 | 26198 ft | 478 kts | 91° |
| 2026-05-05 19:57 | 36.83461 | 8.59816 | 25241 ft | 473 kts | 91° |
| 2026-05-05 19:57 | 36.83456 | 8.63864 | 24566 ft | 469 kts | 91° |
| 2026-05-05 19:58 | 36.83454 | 8.66573 | 24110 ft | 466 kts | 91° |
| 2026-05-05 19:58 | 36.83472 | 8.71963 | 23171 ft | 462 kts | 91° |
| 2026-05-05 19:58 | 36.83493 | 8.74631 | 22689 ft | 459 kts | 91° |
| 2026-05-05 19:58 | 36.83530 | 8.78633 | 21987 ft | 456 kts | 91° |
| 2026-05-05 19:59 | 36.83567 | 8.82540 | 21347 ft | 451 kts | 91° |
| 2026-05-05 19:59 | 36.83599 | 8.86461 | 20704 ft | 448 kts | 91° |
| 2026-05-05 19:59 | 36.83624 | 8.90313 | 20088 ft | 444 kts | 91° |
| 2026-05-05 19:59 | 36.83641 | 8.94138 | 19509 ft | 440 kts | 91° |
| 2026-05-05 20:00 | 36.83655 | 8.97964 | 18923 ft | 436 kts | 91° |
| 2026-05-05 20:00 | 36.83666 | 9.01721 | 18365 ft | 433 kts | 91° |
| 2026-05-05 20:00 | 36.83677 | 9.05450 | 17763 ft | 429 kts | 91° |
| 2026-05-05 20:00 | 36.83690 | 9.09187 | 17149 ft | 426 kts | 91° |
| 2026-05-05 20:01 | 36.83703 | 9.12846 | 16576 ft | 422 kts | 91° |
| 2026-05-05 20:01 | 36.83716 | 9.16513 | 16024 ft | 418 kts | 91° |
| 2026-05-05 20:01 | 36.83726 | 9.20103 | 15492 ft | 415 kts | 91° |
| 2026-05-05 20:01 | 36.83735 | 9.23709 | 14949 ft | 412 kts | 91° |
| 2026-05-05 20:02 | 36.83741 | 9.27252 | 14428 ft | 409 kts | 91° |
| 2026-05-05 20:02 | 36.83748 | 9.30807 | 13916 ft | 405 kts | 91° |
| 2026-05-05 20:02 | 36.83753 | 9.34329 | 13354 ft | 402 kts | 91° |
| 2026-05-05 20:02 | 36.83757 | 9.37763 | 12809 ft | 399 kts | 91° |
| 2026-05-05 20:03 | 36.83766 | 9.41206 | 12266 ft | 395 kts | 89° |
| 2026-05-05 20:03 | 36.84087 | 9.44621 | 11717 ft | 392 kts | 81° |
| 2026-05-05 20:03 | 36.84525 | 9.47973 | 11209 ft | 387 kts | 81° |
| 2026-05-05 20:03 | 36.84945 | 9.51196 | 11072 ft | 371 kts | 81° |
| 2026-05-05 20:04 | 36.85353 | 9.54322 | 10952 ft | 356 kts | 81° |
| 2026-05-05 20:04 | 36.85739 | 9.57292 | 10826 ft | 343 kts | 81° |
| 2026-05-05 20:04 | 36.86116 | 9.60187 | 10706 ft | 331 kts | 81° |
| 2026-05-05 20:04 | 36.86480 | 9.62990 | 10523 ft | 322 kts | 81° |
| 2026-05-05 20:05 | 36.86831 | 9.65708 | 10212 ft | 318 kts | 81° |
| 2026-05-05 20:05 | 36.87181 | 9.68437 | 9857 ft | 316 kts | 81° |
| 2026-05-05 20:05 | 36.87529 | 9.71142 | 9475 ft | 313 kts | 81° |
| 2026-05-05 20:05 | 36.87876 | 9.73817 | 9119 ft | 310 kts | 81° |
| 2026-05-05 20:06 | 36.88213 | 9.76429 | 8757 ft | 306 kts | 81° |
| 2026-05-05 20:06 | 36.88547 | 9.79037 | 8385 ft | 303 kts | 82° |
| 2026-05-05 20:06 | 36.88875 | 9.81625 | 8011 ft | 299 kts | 82° |
| 2026-05-05 20:06 | 36.89199 | 9.84187 | 7626 ft | 296 kts | 82° |
| 2026-05-05 20:07 | 36.89516 | 9.86699 | 7075 ft | 291 kts | 82° |
| 2026-05-05 20:07 | 36.89833 | 9.89203 | 6332 ft | 290 kts | 82° |
| 2026-05-05 20:07 | 36.90146 | 9.91658 | 5567 ft | 288 kts | 82° |
| 2026-05-05 20:07 | 36.90460 | 9.94126 | 4818 ft | 285 kts | 81° |
| 2026-05-05 20:08 | 36.90768 | 9.96562 | 4055 ft | 282 kts | 81° |
| 2026-05-05 20:08 | 36.91069 | 9.98974 | 3329 ft | 279 kts | 81° |
| 2026-05-05 20:08 | 36.91242 | 10.01373 | 2739 ft | 276 kts | 95° |
| 2026-05-05 20:08 | 36.90813 | 10.03598 | 2535 ft | 251 kts | 111° |
| 2026-05-05 20:09 | 36.90239 | 10.05553 | 2428 ft | 229 kts | 111° |
| 2026-05-05 20:09 | 36.89721 | 10.07342 | 2323 ft | 208 kts | 111° |
| 2026-05-05 20:09 | 36.89262 | 10.08940 | 2250 ft | 183 kts | 112° |
| 2026-05-05 20:09 | 36.88862 | 10.10343 | 2160 ft | 161 kts | 112° |
| 2026-05-05 20:10 | 36.88505 | 10.11585 | 2122 ft | 146 kts | 112° |
| 2026-05-05 20:10 | 36.88166 | 10.12750 | 1854 ft | 141 kts | 114° |
| 2026-05-05 20:10 | 36.87836 | 10.13884 | 1614 ft | 138 kts | 115° |
| 2026-05-05 20:10 | 36.87509 | 10.14999 | 1399 ft | 135 kts | 114° |
| 2026-05-05 20:11 | 36.87188 | 10.16099 | 1190 ft | 134 kts | 113° |
| 2026-05-05 20:11 | 36.86864 | 10.17186 | 988 ft | 133 kts | 113° |
| 2026-05-05 20:11 | 36.86531 | 10.18258 | 781 ft | 131 kts | 111° |
| 2026-05-05 20:11 | 36.86206 | 10.19332 | 570 ft | 131 kts | 111° |
| 2026-05-05 20:12 | 36.85884 | 10.20376 | 341 ft | 127 kts | 113° |
| 2026-05-05 20:12 | 36.85561 | 10.21375 | 160 ft | 125 kts | 113° |
| 2026-05-05 20:12 | 36.85225 | 10.22366 | 42 ft | 118 kts | 112° |
| 2026-05-05 20:12 | 36.84943 | 10.23213 | 30 ft | 89 kts | 110° |
| 2026-05-05 20:13 | 36.84771 | 10.23727 | 30 ft | 39 kts | 114° |
| 2026-05-05 20:13 | 36.84707 | 10.23916 | 31 ft | 19 kts | 112° |
| 2026-05-05 20:13 | 36.84638 | 10.24057 | 32 ft | 22 kts | 155° |
| 2026-05-05 20:13 | 36.84501 | 10.24004 | 31 ft | 19 kts | 210° |
| 2026-05-05 20:14 | 36.84519 | 10.23828 | 31 ft | 24 kts | 294° |
| 2026-05-05 20:14 | 36.84580 | 10.23644 | 31 ft | 22 kts | 294° |
| 2026-05-05 20:14 | 36.84640 | 10.23472 | 30 ft | 21 kts | 292° |
| 2026-05-05 20:14 | 36.84691 | 10.23307 | 30 ft | 20 kts | 291° |
| 2026-05-05 20:15 | 36.84741 | 10.23153 | 30 ft | 18 kts | 292° |
| 2026-05-05 20:15 | 36.84790 | 10.23011 | 30 ft | 17 kts | 293° |
| 2026-05-05 20:15 | 36.84835 | 10.22878 | 30 ft | 16 kts | 293° |
| 2026-05-05 20:15 | 36.84878 | 10.22753 | 31 ft | 15 kts | 293° |
| 2026-05-05 20:16 | 36.84915 | 10.22644 | 33 ft | 13 kts | 291° |
| 2026-05-05 20:16 | 36.84947 | 10.22540 | 31 ft | 13 kts | 291° |
| 2026-05-05 20:16 | 36.84979 | 10.22435 | 31 ft | 13 kts | 281° |
| 2026-05-05 20:16 | 36.84925 | 10.22375 | 31 ft | 11 kts | 196° |
| 2026-05-05 20:17 | 36.84869 | 10.22317 | 30 ft | 12 kts | 265° |
| 2026-05-05 20:17 | 36.84884 | 10.22222 | 30 ft | 11 kts | 282° |
| 2026-05-05 20:17 | 36.84898 | 10.22135 | 30 ft | 10 kts | 280° |
| 2026-05-05 20:17 | 36.84883 | 10.22059 | 30 ft | 9 kts | 229° |
| 2026-05-05 20:18 | 36.84826 | 10.22037 | 30 ft | 11 kts | 178° |
| 2026-05-05 20:18 | 36.84744 | 10.22013 | 30 ft | 11 kts | 221° |
| 2026-05-05 20:18 | 36.84743 | 10.21935 | 30 ft | 6 kts | 281° |
| 2026-05-05 20:18 | 36.84724 | 10.21911 | 30 ft | 4 kts | 192° |
| 2026-05-05 20:19 | 36.84701 | 10.21906 | 30 ft | 3 kts | 191° |
| 2026-05-05 20:19 | 36.84686 | 10.21900 | 30 ft | 2 kts | 197° |
| 2026-05-05 20:19 | 36.84679 | 10.21897 | 30 ft | 0 kts | 197° |